Time;durP1;ratioP1;P1;durP2;ratioP2;P2;SDS_P1;SDS_P2;PMS_P1;PMS_P2;Temp;Humidity;BMP_temperature;BMP_pressure;BME280_temperature;BME280_humidity;BME280_pressure;Samples;Min_cycle;Max_cycle;Signal;HPM_P1;HPM_P2
2022/11/12 00:02:19;;;;;;;10.80;9.70;;;7.80;99.90;;;;;;5012982;28;20207;-63
2022/11/12 00:04:44;;;;;;;13.17;10.07;;;7.90;99.90;;;;;;5012192;28;20294;-64
2022/11/12 00:07:10;;;;;;;12.63;10.83;;;8.00;99.90;;;;;;5012766;28;20636;-63
2022/11/12 00:09:35;;;;;;;11.50;10.17;;;8.10;99.90;;;;;;5011414;28;20182;-63
2022/11/12 00:12:01;;;;;;;11.43;10.33;;;7.80;99.90;;;;;;5013076;28;20201;-63
2022/11/12 00:14:27;;;;;;;10.93;9.83;;;7.70;99.90;;;;;;5012507;28;20218;-63
2022/11/12 00:16:52;;;;;;;13.17;11.00;;;7.60;99.90;;;;;;5010387;28;20191;-63
2022/11/12 00:19:18;;;;;;;10.70;9.60;;;7.70;99.90;;;;;;5012461;28;20191;-64
2022/11/12 00:21:44;;;;;;;12.30;10.10;;;7.50;99.90;;;;;;5011379;28;20183;-63
2022/11/12 00:24:09;;;;;;;9.83;8.93;;;7.80;99.90;;;;;;5012848;28;20191;-64
2022/11/12 00:26:35;;;;;;;14.27;10.00;;;7.70;99.90;;;;;;5011977;28;20198;-63
2022/11/12 00:29:01;;;;;;;12.03;10.67;;;7.80;99.90;;;;;;5012189;28;20175;-63
2022/11/12 00:31:26;;;;;;;11.97;10.67;;;7.80;99.90;;;;;;5012104;28;20179;-63
2022/11/12 00:33:52;;;;;;;10.33;9.23;;;7.50;99.90;;;;;;5012241;28;20260;-63
2022/11/12 00:36:17;;;;;;;11.53;9.70;;;7.60;99.90;;;;;;5005600;28;20278;-63
2022/11/12 00:38:43;;;;;;;11.00;9.67;;;7.50;99.90;;;;;;5013125;28;20219;-64
2022/11/12 00:41:09;;;;;;;13.07;10.95;;;7.40;99.90;;;;;;5011801;28;20651;-63
2022/11/12 00:43:35;;;;;;;11.60;10.27;;;7.30;99.90;;;;;;5013002;28;20206;-63
2022/11/12 00:46:00;;;;;;;14.40;10.97;;;7.30;99.90;;;;;;5012423;28;20203;-64
2022/11/12 00:48:26;;;;;;;11.63;10.40;;;7.40;99.90;;;;;;5007595;28;20215;-64
2022/11/12 00:50:59;;;;;;;11.47;10.27;;;7.40;99.90;;;;;;5016038;28;20214;-64
2022/11/12 00:53:25;;;;;;;10.70;9.65;;;7.30;99.90;;;;;;5011377;28;20759;-63
2022/11/12 00:55:51;;;;;;;10.97;9.87;;;7.20;99.90;;;;;;5013518;28;20191;-63
2022/11/12 00:58:16;;;;;;;12.50;9.33;;;7.00;99.90;;;;;;5017454;28;20223;-63
2022/11/12 01:00:42;;;;;;;10.97;9.97;;;7.20;99.90;;;;;;5014022;28;20237;-63
2022/11/12 01:03:07;;;;;;;10.53;9.43;;;7.00;99.90;;;;;;5014688;28;20290;-63
2022/11/12 01:05:33;;;;;;;10.07;8.97;;;7.30;99.90;;;;;;5004607;28;20207;-63
2022/11/12 01:07:59;;;;;;;10.50;9.40;;;7.10;99.90;;;;;;5011936;28;20270;-63
2022/11/12 01:10:25;;;;;;;12.30;9.73;;;7.10;99.90;;;;;;5012184;28;20262;-63
2022/11/12 01:12:50;;;;;;;10.20;9.20;;;7.30;99.90;;;;;;5010095;28;20229;-64
2022/11/12 01:15:16;;;;;;;9.77;8.87;;;7.30;99.90;;;;;;5011870;28;20678;-63
2022/11/12 01:17:42;;;;;;;10.93;9.03;;;7.40;99.90;;;;;;5010814;28;20671;-64
2022/11/12 01:20:07;;;;;;;11.47;9.87;;;7.30;99.90;;;;;;5012505;28;20274;-64
2022/11/12 01:22:33;;;;;;;9.90;8.77;;;7.10;99.90;;;;;;5010960;28;20210;-63
2022/11/12 01:24:59;;;;;;;9.63;8.63;;;7.40;99.90;;;;;;5012161;28;20544;-63
2022/11/12 01:27:24;;;;;;;11.43;8.87;;;7.20;99.90;;;;;;5011088;28;20182;-64
2022/11/12 01:29:50;;;;;;;10.10;9.10;;;7.40;99.90;;;;;;5010775;28;20183;-63
2022/11/12 01:32:16;;;;;;;9.63;8.33;;;7.40;99.90;;;;;;5010576;28;20195;-63
2022/11/12 01:34:41;;;;;;;10.37;9.37;;;7.40;99.90;;;;;;5010397;28;20593;-64
2022/11/12 01:37:07;;;;;;;9.60;8.60;;;7.10;99.90;;;;;;5011198;28;20191;-63
2022/11/12 01:39:33;;;;;;;10.30;9.30;;;7.50;99.90;;;;;;5011162;28;20202;-63
2022/11/12 01:41:58;;;;;;;11.03;9.90;;;7.00;99.90;;;;;;5012254;28;20702;-63
2022/11/12 01:44:28;;;;;;;15.50;8.60;;;7.30;99.90;;;;;;5011129;28;20194;-63
2022/11/12 01:47:16;;;;;;;8.77;7.90;;;7.20;99.90;;;;;;5011284;28;20266;-63
2022/11/12 01:49:56;;;;;;;8.45;7.65;;;7.10;99.90;;;;;;5007434;28;20179;-63
2022/11/12 01:52:22;;;;;;;9.23;8.27;;;7.10;99.90;;;;;;5010810;28;20194;-63
2022/11/12 01:54:51;;;;;;;9.20;8.00;;;7.30;99.90;;;;;;5011407;28;20237;-63
2022/11/12 01:57:25;;;;;;;8.10;7.38;;;7.20;99.90;;;;;;5010388;28;20202;-63
2022/11/12 01:59:55;;;;;;;8.88;8.00;;;7.50;99.90;;;;;;5010245;28;20222;-63
2022/11/12 02:02:20;;;;;;;8.18;7.38;;;6.70;99.90;;;;;;5011267;28;20210;-63
2022/11/12 02:04:47;;;;;;;8.10;7.40;;;7.00;99.90;;;;;;5010147;28;20206;-64
2022/11/12 02:07:14;;;;;;;9.02;7.90;;;6.90;99.90;;;;;;5010998;28;20185;-63
2022/11/12 02:09:40;;;;;;;8.15;7.45;;;6.70;99.90;;;;;;5010390;28;20868;-63
2022/11/12 02:12:06;;;;;;;8.57;7.75;;;6.40;99.90;;;;;;5010533;28;20211;-64
2022/11/12 02:14:32;;;;;;;8.70;7.90;;;7.00;99.90;;;;;;5010225;28;20282;-64
2022/11/12 02:16:59;;;;;;;9.35;7.57;;;6.80;99.90;;;;;;5007807;28;21202;-63
2022/11/12 02:19:25;;;;;;;8.73;7.85;;;6.70;99.90;;;;;;5010066;28;20187;-63
2022/11/12 02:21:51;;;;;;;9.30;8.35;;;6.60;99.90;;;;;;5009627;28;20224;-63
2022/11/12 02:24:17;;;;;;;9.27;7.90;;;6.60;99.90;;;;;;5010272;28;20183;-62
2022/11/12 02:26:50;;;;;;;9.10;8.20;;;6.90;99.90;;;;;;5010004;28;20694;-64
2022/11/12 02:29:16;;;;;;;9.48;7.90;;;7.10;99.90;;;;;;5009908;28;20194;-63
2022/11/12 02:31:41;;;;;;;8.00;7.18;;;6.90;99.90;;;;;;5010501;28;20281;-63
2022/11/12 02:34:07;;;;;;;8.03;7.23;;;6.60;99.90;;;;;;5010371;28;20301;-64
2022/11/12 02:36:33;;;;;;;7.30;6.60;;;6.90;99.90;;;;;;5005528;28;20537;-64
2022/11/12 02:38:59;;;;;;;8.83;7.93;;;6.80;99.90;;;;;;5009776;28;20227;-64
2022/11/12 02:41:25;;;;;;;8.43;7.40;;;6.60;99.90;;;;;;5010313;28;20183;-63
2022/11/12 02:43:51;;;;;;;9.25;8.25;;;6.70;99.90;;;;;;5009880;28;20214;-63
2022/11/12 02:46:16;;;;;;;8.70;7.80;;;6.70;99.90;;;;;;5009714;28;20665;-63
2022/11/12 02:48:43;;;;;;;8.23;6.97;;;6.70;99.90;;;;;;5010865;28;20581;-63
2022/11/12 02:51:09;;;;;;;8.30;7.22;;;6.70;99.90;;;;;;5009595;28;20183;-64
2022/11/12 02:53:34;;;;;;;7.80;7.10;;;6.60;99.90;;;;;;5009807;28;20272;-63
2022/11/12 02:56:00;;;;;;;8.60;7.70;;;6.60;99.90;;;;;;5009570;28;20267;-64
2022/11/12 02:58:27;;;;;;;8.27;6.75;;;6.80;99.90;;;;;;5008884;28;20325;-64
2022/11/12 03:00:53;;;;;;;8.05;7.25;;;6.80;99.90;;;;;;5002947;28;20183;-63
2022/11/12 03:03:19;;;;;;;8.10;7.25;;;6.80;99.90;;;;;;5011791;28;20210;-63
2022/11/12 03:05:45;;;;;;;8.17;7.37;;;6.50;99.90;;;;;;4998944;28;20728;-63
2022/11/12 03:08:11;;;;;;;7.55;6.80;;;6.60;99.90;;;;;;5004756;28;20252;-63
2022/11/12 03:10:38;;;;;;;8.20;7.17;;;6.70;99.90;;;;;;5011114;28;20702;-64
2022/11/12 03:13:04;;;;;;;8.00;7.20;;;6.40;99.90;;;;;;5012309;28;20846;-63
2022/11/12 03:15:30;;;;;;;10.43;7.28;;;6.60;99.90;;;;;;5015532;28;20206;-64
2022/11/12 03:17:57;;;;;;;8.40;7.30;;;6.70;99.90;;;;;;5010606;28;20706;-63
2022/11/12 03:20:24;;;;;;;9.02;8.02;;;6.80;99.90;;;;;;5015244;28;20312;-65
2022/11/12 03:22:57;;;;;;;9.13;7.20;;;6.20;99.90;;;;;;5019921;28;20295;-63
2022/11/12 03:25:23;;;;;;;7.43;6.60;;;6.70;99.90;;;;;;5015244;28;20199;-63
2022/11/12 03:27:59;;;;;;;7.47;6.78;;;6.80;99.90;;;;;;5015038;28;20183;-63
2022/11/12 03:30:29;;;;;;;7.72;6.65;;;6.80;99.90;;;;;;5017379;28;20562;-64
2022/11/12 03:32:55;;;;;;;7.30;6.70;;;6.80;99.90;;;;;;5017138;28;20365;-63
2022/11/12 03:35:21;;;;;;;7.60;6.73;;;6.70;99.90;;;;;;5008533;28;20668;-64
2022/11/12 03:37:47;;;;;;;6.63;6.03;;;6.50;99.90;;;;;;5012901;28;20191;-62
2022/11/12 03:40:13;;;;;;;6.77;6.17;;;6.70;99.90;;;;;;5013481;28;20187;-64
2022/11/12 03:42:47;;;;;;;6.73;6.13;;;6.80;99.90;;;;;;5013490;28;20466;-63
2022/11/12 03:45:14;;;;;;;7.10;6.40;;;6.80;99.90;;;;;;5024782;28;20197;-63
2022/11/12 03:47:45;;;;;;;7.15;6.45;;;7.00;99.90;;;;;;5013007;28;20187;-63
2022/11/12 03:50:12;;;;;;;5.90;5.40;;;6.50;99.90;;;;;;5012510;28;20189;-64
2022/11/12 03:52:42;;;;;;;7.50;6.65;;;6.70;99.90;;;;;;5003267;28;20249;-63
2022/11/12 03:55:08;;;;;;;7.20;6.55;;;6.60;99.90;;;;;;5013172;28;20238;-64
2022/11/12 03:57:34;;;;;;;7.23;6.53;;;6.60;99.90;;;;;;5010658;28;20202;-64
2022/11/12 03:59:59;;;;;;;7.50;5.85;;;6.50;99.90;;;;;;5012507;28;20187;-64
2022/11/12 04:02:25;;;;;;;6.97;5.90;;;6.50;99.90;;;;;;5028693;28;20567;-63
2022/11/12 04:10:21;;;;;;;6.68;6.00;;;6.40;99.90;;;;;;5007840;28;20325;-63
2022/11/12 04:15:31;;;;;;;5.70;5.03;;;6.60;99.90;;;;;;5014142;28;20670;-63
2022/11/12 04:23:24;;;;;;;6.03;5.40;;;6.50;99.90;;;;;;5009922;28;20213;-64
2022/11/12 04:28:34;;;;;;;5.97;5.47;;;6.60;99.90;;;;;;5012390;28;20596;-64
2022/11/12 04:31:00;;;;;;;5.90;5.40;;;6.60;99.90;;;;;;5011934;28;20270;-64
2022/11/12 04:33:25;;;;;;;5.30;4.90;;;6.50;99.90;;;;;;5011435;28;20199;-63
2022/11/12 04:35:51;;;;;;;5.20;4.70;;;6.60;99.90;;;;;;5011295;28;20195;-63
2022/11/12 04:38:17;;;;;;;7.67;5.20;;;6.40;99.90;;;;;;5012035;28;20659;-63
2022/11/12 04:46:10;;;;;;;5.57;4.85;;;7.00;99.90;;;;;;5006148;28;20221;-63
2022/11/12 04:48:36;;;;;;;5.07;4.67;;;6.70;99.90;;;;;;5019525;28;20171;-63
2022/11/12 04:52:03;;;;;;;5.73;5.20;;;6.80;99.90;;;;;;5011978;28;20290;-63
2022/11/12 04:53:53;;;;;;;5.45;4.90;;;6.50;99.90;;;;;;5000002;28;20290;-63
2022/11/12 04:56:18;;;;;;;5.23;4.73;;;6.70;99.90;;;;;;5008132;28;21457;-63
2022/11/12 04:58:45;;;;;;;5.80;5.30;;;6.60;99.90;;;;;;5011394;28;20878;-63
2022/11/12 05:01:10;;;;;;;6.15;4.75;;;6.60;99.90;;;;;;5012990;28;20182;-63
2022/11/12 05:03:36;;;;;;;4.77;4.37;;;6.50;99.90;;;;;;5012065;28;20264;-62
2022/11/12 05:06:50;;;;;;;5.37;4.93;;;6.50;99.90;;;;;;5011383;28;20306;-63
2022/11/12 05:08:53;;;;;;;5.43;4.20;;;6.50;99.90;;;;;;5011932;28;20191;-64
2022/11/12 05:11:19;;;;;;;5.20;4.70;;;6.30;99.90;;;;;;5012866;28;20190;-63
2022/11/12 05:13:45;;;;;;;5.40;4.93;;;6.30;99.90;;;;;;5013955;28;20259;-63
2022/11/12 05:16:10;;;;;;;4.60;4.20;;;6.30;99.90;;;;;;5011368;28;20198;-63
2022/11/12 05:18:36;;;;;;;5.47;4.97;;;6.40;99.90;;;;;;5019305;28;20190;-63
2022/11/12 05:22:04;;;;;;;5.50;5.00;;;5.60;99.90;;;;;;5011279;28;20257;-63
2022/11/12 05:23:47;;;;;;;5.80;5.20;;;6.20;99.90;;;;;;5014502;28;20236;-63
2022/11/12 05:26:13;;;;;;;6.23;4.90;;;6.10;99.90;;;;;;5009839;28;20935;-63
2022/11/12 05:28:38;;;;;;;6.30;4.60;;;6.20;99.90;;;;;;5012090;28;20691;-63
2022/11/12 05:31:04;;;;;;;5.10;4.70;;;5.90;99.90;;;;;;5010558;28;20187;-63
2022/11/12 05:33:30;;;;;;;4.70;4.33;;;6.50;99.90;;;;;;5011809;28;20195;-63
2022/11/12 05:35:56;;;;;;;5.50;5.00;;;6.50;99.90;;;;;;5006403;28;20282;-63
2022/11/12 05:38:21;;;;;;;5.13;4.72;;;6.30;99.90;;;;;;5009712;28;20213;-63
2022/11/12 05:40:47;;;;;;;5.00;4.60;;;6.30;99.90;;;;;;5020991;28;20193;-63
2022/11/12 05:43:12;;;;;;;4.97;4.57;;;6.50;99.90;;;;;;5012012;28;20702;-63
2022/11/12 05:45:42;;;;;;;4.63;4.23;;;6.40;99.90;;;;;;5016643;28;20206;-63
2022/11/12 05:48:08;;;;;;;4.47;4.07;;;6.10;99.90;;;;;;5010219;28;20189;-63
2022/11/12 05:50:33;;;;;;;5.00;4.60;;;6.10;99.90;;;;;;5010988;28;20667;-63
2022/11/12 05:52:59;;;;;;;4.90;4.40;;;6.20;99.90;;;;;;5011506;28;20302;-64
2022/11/12 05:55:24;;;;;;;5.00;4.50;;;6.20;99.90;;;;;;5014562;28;20190;-63
2022/11/12 05:57:50;;;;;;;4.93;4.53;;;6.30;99.90;;;;;;5018458;28;20674;-63
2022/11/12 06:00:16;;;;;;;5.20;4.80;;;5.70;99.90;;;;;;5013855;28;20270;-63
2022/11/12 06:02:42;;;;;;;5.23;4.73;;;6.00;99.90;;;;;;5019128;28;20212;-63
2022/11/12 06:05:08;;;;;;;5.50;5.00;;;6.10;99.90;;;;;;5007914;28;20464;-63
2022/11/12 06:07:34;;;;;;;5.63;5.07;;;6.00;99.90;;;;;;5010190;28;20174;-63
2022/11/12 06:09:59;;;;;;;5.17;4.67;;;6.00;99.90;;;;;;5010897;28;20512;-64
2022/11/12 06:12:25;;;;;;;5.60;5.10;;;6.20;99.90;;;;;;5010523;28;20337;-64
2022/11/12 06:14:51;;;;;;;5.67;5.07;;;6.00;99.90;;;;;;5016424;28;20757;-63
2022/11/12 06:17:16;;;;;;;5.70;4.93;;;6.20;99.90;;;;;;5010627;28;20213;-63
2022/11/12 06:19:42;;;;;;;5.27;4.80;;;6.20;99.90;;;;;;5006942;28;20724;-63
2022/11/12 06:22:08;;;;;;;5.23;4.83;;;6.10;99.90;;;;;;5007985;28;21191;-63
2022/11/12 06:24:34;;;;;;;4.90;4.50;;;6.00;99.90;;;;;;5010682;28;20675;-64
2022/11/12 06:26:59;;;;;;;4.82;4.43;;;6.20;99.90;;;;;;5009604;28;20183;-63
2022/11/12 06:29:25;;;;;;;4.47;4.07;;;6.00;99.90;;;;;;5009144;28;20524;-64
2022/11/12 06:31:51;;;;;;;5.43;4.83;;;6.00;99.90;;;;;;5010663;28;20269;-64
2022/11/12 06:34:16;;;;;;;5.00;4.60;;;6.00;99.90;;;;;;5009290;28;20186;-64
2022/11/12 06:36:42;;;;;;;5.23;4.77;;;6.20;99.90;;;;;;5008663;28;20191;-64
2022/11/12 06:39:10;;;;;;;4.97;4.57;;;6.40;99.90;;;;;;5010043;28;20231;-64
2022/11/12 06:41:35;;;;;;;4.90;4.50;;;6.30;99.90;;;;;;5010912;28;20194;-64
2022/11/12 06:44:03;;;;;;;4.90;4.50;;;6.20;99.90;;;;;;5009360;28;20217;-64
2022/11/12 06:46:29;;;;;;;6.28;5.68;;;6.10;99.90;;;;;;5008236;28;20206;-64
2022/11/12 06:48:54;;;;;;;5.27;4.77;;;6.70;99.90;;;;;;5006887;28;20717;-64
2022/11/12 06:51:21;;;;;;;5.03;4.60;;;6.10;99.90;;;;;;5007573;28;20702;-64
2022/11/12 06:53:47;;;;;;;5.22;4.72;;;6.20;99.90;;;;;;5009612;28;20203;-64
2022/11/12 06:56:13;;;;;;;5.10;4.60;;;6.30;99.90;;;;;;4997991;28;20268;-64
2022/11/12 06:58:39;;;;;;;5.30;4.80;;;6.30;99.90;;;;;;5004869;28;20274;-63
2022/11/12 07:01:08;;;;;;;5.67;5.17;;;6.10;99.90;;;;;;5005146;28;20183;-63
2022/11/12 07:03:35;;;;;;;5.50;5.00;;;6.30;99.90;;;;;;5007010;28;20453;-63
2022/11/12 07:06:07;;;;;;;5.30;4.80;;;6.10;99.90;;;;;;5004159;28;20218;-63
2022/11/12 07:08:33;;;;;;;5.07;4.57;;;6.10;99.90;;;;;;5006688;28;20186;-63
2022/11/12 07:10:59;;;;;;;5.40;4.90;;;6.30;99.90;;;;;;5008713;28;20588;-63
2022/11/12 07:13:25;;;;;;;5.67;5.07;;;6.20;99.90;;;;;;5006423;28;20461;-64
2022/11/12 07:15:50;;;;;;;6.63;5.40;;;6.50;99.90;;;;;;5005966;28;20819;-63
2022/11/12 07:18:16;;;;;;;5.50;5.00;;;6.40;99.90;;;;;;5007683;28;20201;-64
2022/11/12 07:20:42;;;;;;;5.53;5.03;;;6.50;99.90;;;;;;5005212;28;20190;-63
2022/11/12 07:23:07;;;;;;;5.40;4.53;;;6.40;99.90;;;;;;5007860;28;20719;-63
2022/11/12 07:25:33;;;;;;;5.90;5.33;;;6.40;99.90;;;;;;5011584;28;20609;-63
2022/11/12 07:27:58;;;;;;;5.37;4.87;;;6.60;99.90;;;;;;5006019;28;20753;-63
2022/11/12 07:30:24;;;;;;;6.10;5.53;;;6.60;99.90;;;;;;5005643;28;20647;-66
2022/11/12 07:32:50;;;;;;;5.60;5.10;;;6.70;99.90;;;;;;5006852;28;20241;-63
2022/11/12 07:35:16;;;;;;;5.85;5.35;;;6.50;99.90;;;;;;5006345;28;20272;-63
2022/11/12 07:37:41;;;;;;;6.30;5.53;;;7.00;99.90;;;;;;5007532;28;20218;-64
2022/11/12 07:40:07;;;;;;;6.00;5.50;;;7.00;99.90;;;;;;5008029;28;20274;-63
2022/11/12 07:42:34;;;;;;;5.20;4.75;;;7.10;99.90;;;;;;5009288;28;20214;-63
2022/11/12 07:45:00;;;;;;;7.30;4.90;;;7.10;99.90;;;;;;5015255;28;20217;-64
2022/11/12 07:47:26;;;;;;;5.40;4.90;;;7.10;99.90;;;;;;5009122;28;20648;-63
2022/11/12 07:49:52;;;;;;;5.20;4.70;;;6.90;99.90;;;;;;5006149;28;20197;-63
2022/11/12 07:52:17;;;;;;;5.23;4.73;;;7.50;99.90;;;;;;5021246;28;20207;-64
2022/11/12 07:54:43;;;;;;;4.50;4.13;;;7.00;99.90;;;;;;5015829;28;20187;-64
2022/11/12 07:57:09;;;;;;;6.77;6.17;;;6.90;99.90;;;;;;5007655;28;20195;-64
2022/11/12 07:59:34;;;;;;;5.80;5.30;;;6.90;99.90;;;;;;5001287;28;20194;-66
2022/11/12 08:02:00;;;;;;;6.13;5.63;;;7.00;99.90;;;;;;5005850;28;20214;-64
2022/11/12 08:04:26;;;;;;;6.20;5.20;;;6.40;99.90;;;;;;5004580;28;20186;-63
2022/11/12 08:06:52;;;;;;;5.07;4.60;;;6.80;99.90;;;;;;5006225;28;20229;-63
2022/11/12 08:09:17;;;;;;;6.00;5.50;;;7.20;99.90;;;;;;5008568;28;20178;-69
2022/11/12 08:11:43;;;;;;;6.00;5.40;;;7.50;99.90;;;;;;5011101;28;20187;-69
2022/11/12 08:14:08;;;;;;;5.47;5.00;;;7.60;99.90;;;;;;5019956;28;20547;-70
2022/11/12 08:16:34;;;;;;;5.80;4.80;;;7.50;99.90;;;;;;5002150;28;20290;-69
2022/11/12 08:19:00;;;;;;;6.40;5.90;;;7.80;99.90;;;;;;5009523;28;20183;-71
2022/11/12 08:21:26;;;;;;;6.18;5.57;;;7.90;99.90;;;;;;5010230;28;20580;-71
2022/11/12 08:23:51;;;;;;;6.67;6.00;;;7.90;99.90;;;;;;5009712;28;20295;-68
2022/11/12 08:26:19;;;;;;;7.77;6.80;;;7.90;99.90;;;;;;5013263;28;20620;-68
2022/11/12 08:28:45;;;;;;;7.55;6.85;;;7.70;99.90;;;;;;5009584;28;20262;-69
2022/11/12 08:31:20;;;;;;;6.93;4.50;;;7.90;99.90;;;;;;5008538;28;20187;-64
2022/11/12 08:33:45;;;;;;;8.10;5.60;;;8.20;99.90;;;;;;5007589;28;20206;-63
2022/11/12 08:36:13;;;;;;;6.03;5.43;;;8.30;99.90;;;;;;5008371;28;20218;-63
2022/11/12 08:38:40;;;;;;;6.78;5.90;;;8.50;99.90;;;;;;5015939;28;20444;-63
2022/11/12 08:41:08;;;;;;;6.28;5.72;;;8.80;99.90;;;;;;5003834;28;20211;-64
2022/11/12 08:43:34;;;;;;;7.10;6.38;;;8.80;99.90;;;;;;5007939;28;20726;-66
2022/11/12 08:46:01;;;;;;;6.78;6.18;;;8.90;99.90;;;;;;5002772;28;20215;-65
2022/11/12 08:48:28;;;;;;;6.90;6.25;;;8.60;99.90;;;;;;5008320;28;20186;-65
2022/11/12 08:50:54;;;;;;;18.00;14.85;;;9.30;99.90;;;;;;5008805;28;20211;-64
2022/11/12 08:53:21;;;;;;;6.07;5.53;;;9.30;99.90;;;;;;5004039;28;20289;-66
2022/11/12 08:55:47;;;;;;;5.88;5.35;;;9.50;99.90;;;;;;5009151;28;20187;-68
2022/11/12 08:58:13;;;;;;;7.73;5.37;;;9.70;99.90;;;;;;5012512;28;20215;-64
2022/11/12 09:00:41;;;;;;;5.63;5.00;;;9.90;99.90;;;;;;5011539;28;20426;-68
2022/11/12 09:03:15;;;;;;;5.70;5.20;;;10.20;99.90;;;;;;5007706;28;20624;-68
2022/11/12 09:05:41;;;;;;;5.00;4.60;;;10.30;99.90;;;;;;5009744;28;20272;-66
2022/11/12 09:08:10;;;;;;;5.87;5.17;;;10.90;99.90;;;;;;5002465;28;20721;-68
2022/11/12 09:10:36;;;;;;;4.75;4.35;;;11.40;99.90;;;;;;5009168;28;20199;-69
2022/11/12 09:13:02;;;;;;;4.97;4.57;;;11.90;99.90;;;;;;5001825;28;20199;-68
2022/11/12 09:15:29;;;;;;;6.90;5.78;;;12.50;99.90;;;;;;5007034;28;20441;-68
2022/11/12 09:18:00;;;;;;;4.38;3.97;;;13.00;99.90;;;;;;5008304;28;20422;-64
2022/11/12 09:20:27;;;;;;;4.70;4.30;;;12.90;99.90;;;;;;5008130;28;20241;-62
2022/11/12 09:22:57;;;;;;;4.57;3.92;;;13.10;99.90;;;;;;5010699;28;20254;-63
2022/11/12 09:25:22;;;;;;;4.65;4.25;;;13.00;99.90;;;;;;5010632;28;20203;-62
2022/11/12 09:27:48;;;;;;;5.23;4.73;;;12.90;99.40;;;;;;5008419;28;20270;-62
2022/11/12 09:30:14;;;;;;;5.47;4.87;;;12.80;99.80;;;;;;5008104;28;20290;-63
2022/11/12 09:32:40;;;;;;;5.10;4.70;;;12.80;99.90;;;;;;5008208;28;20458;-68
2022/11/12 09:35:06;;;;;;;6.07;4.50;;;12.70;99.90;;;;;;5005398;28;20214;-68
2022/11/12 09:37:31;;;;;;;5.20;4.40;;;12.70;99.90;;;;;;5010897;28;20186;-68
2022/11/12 09:39:57;;;;;;;6.83;4.80;;;12.80;99.90;;;;;;5011000;28;20187;-67
2022/11/12 09:42:23;;;;;;;5.00;4.60;;;12.80;99.90;;;;;;5006226;28;20206;-68
2022/11/12 09:45:01;;;;;;;5.30;4.80;;;13.10;99.90;;;;;;5008801;28;20191;-68
2022/11/12 09:47:44;;;;;;;6.40;5.80;;;13.20;99.60;;;;;;5009554;28;20199;-68
2022/11/12 09:50:32;;;;;;;5.75;5.20;;;13.00;99.90;;;;;;5006678;28;20545;-68
2022/11/12 09:53:33;;;;;;;5.80;5.22;;;13.00;99.70;;;;;;5010001;28;20195;-68
2022/11/12 09:56:00;;;;;;;7.45;6.13;;;12.90;99.90;;;;;;5014055;28;20669;-68
2022/11/12 09:58:26;;;;;;;5.60;5.07;;;12.60;99.90;;;;;;5018860;28;20209;-68
2022/11/12 10:00:56;;;;;;;5.63;5.13;;;12.90;99.90;;;;;;5012245;28;20656;-68
2022/11/12 10:03:27;;;;;;;5.25;4.75;;;12.90;99.90;;;;;;5012684;28;20214;-68
2022/11/12 10:06:03;;;;;;;5.22;4.72;;;12.80;99.90;;;;;;5012221;28;20222;-68
2022/11/12 10:08:52;;;;;;;4.55;4.15;;;12.90;99.90;;;;;;5006862;28;20217;-67
2022/11/12 10:12:30;;;;;;;4.28;3.95;;;13.20;99.90;;;;;;5010286;28;20182;-67
2022/11/12 10:14:53;;;;;;;4.50;3.90;;;13.20;99.60;;;;;;5005746;28;20190;-66
2022/11/12 10:17:27;;;;;;;5.40;3.90;;;13.30;99.60;;;;;;5010814;28;20183;-69
2022/11/12 10:20:09;;;;;;;4.85;4.45;;;12.80;99.80;;;;;;5008909;28;20201;-68
2022/11/12 10:23:03;;;;;;;4.85;4.32;;;13.40;99.90;;;;;;5025708;28;20556;-67
2022/11/12 10:25:31;;;;;;;5.20;4.50;;;13.60;99.90;;;;;;5007018;28;20280;-68
2022/11/12 10:27:57;;;;;;;4.45;4.05;;;13.50;99.70;;;;;;5011507;28;20508;-68
2022/11/12 10:30:24;;;;;;;4.80;4.35;;;13.90;99.80;;;;;;5007746;28;20269;-67
2022/11/12 10:32:51;;;;;;;4.65;4.25;;;14.30;99.20;;;;;;5007566;28;20294;-67
2022/11/12 10:35:19;;;;;;;5.78;5.18;;;14.60;98.10;;;;;;5004876;28;20187;-67
2022/11/12 10:37:55;;;;;;;6.63;5.10;;;15.30;97.10;;;;;;4991809;28;20202;-68
2022/11/12 10:40:23;;;;;;;4.60;4.20;;;16.00;96.00;;;;;;4999823;28;20187;-68
2022/11/12 10:43:19;;;;;;;5.07;4.65;;;16.40;94.80;;;;;;5003416;28;20206;-67
2022/11/12 10:45:46;;;;;;;4.82;4.43;;;16.80;93.90;;;;;;4999001;28;20541;-68
2022/11/12 10:48:51;;;;;;;5.38;4.95;;;16.70;93.50;;;;;;5009634;28;20214;-67
2022/11/12 10:51:20;;;;;;;5.43;4.93;;;17.00;93.50;;;;;;5005180;28;20190;-68
2022/11/12 10:53:46;;;;;;;5.88;5.38;;;17.20;92.60;;;;;;5006463;28;20575;-68
2022/11/12 10:56:26;;;;;;;5.97;5.53;;;17.10;92.50;;;;;;5009743;28;20190;-68
2022/11/12 10:59:13;;;;;;;6.75;6.15;;;17.50;92.50;;;;;;5018190;28;20195;-68
2022/11/12 11:01:39;;;;;;;6.15;5.60;;;17.30;92.20;;;;;;5008541;28;20191;-68
2022/11/12 11:04:16;;;;;;;6.47;5.97;;;17.10;92.30;;;;;;5009516;28;20274;-68
2022/11/12 11:06:42;;;;;;;5.40;4.88;;;16.50;92.30;;;;;;5006240;28;20943;-67
2022/11/12 11:09:14;;;;;;;5.87;5.37;;;16.30;93.20;;;;;;5009355;28;20224;-69
2022/11/12 11:11:50;;;;;;;6.93;6.15;;;16.00;93.90;;;;;;5009671;28;20438;-67
2022/11/12 11:14:23;;;;;;;9.25;6.80;;;15.90;94.60;;;;;;5010293;28;20189;-68
2022/11/12 11:16:50;;;;;;;8.10;6.70;;;15.50;94.80;;;;;;5000600;28;20188;-67
2022/11/12 11:19:16;;;;;;;9.45;6.85;;;15.60;95.20;;;;;;5036015;28;20727;-67
2022/11/12 11:21:47;;;;;;;8.63;7.20;;;15.60;95.10;;;;;;5005070;28;20222;-68
2022/11/12 11:24:25;;;;;;;7.85;7.18;;;15.40;95.10;;;;;;5008730;28;20187;-67
2022/11/12 11:27:02;;;;;;;8.40;7.60;;;15.40;95.40;;;;;;5008096;28;20214;-69
2022/11/12 11:29:37;;;;;;;8.73;7.70;;;15.30;95.60;;;;;;4999406;28;20186;-69
2022/11/12 11:32:32;;;;;;;7.75;7.05;;;15.00;96.40;;;;;;5006074;28;20229;-67
2022/11/12 11:35:17;;;;;;;9.13;7.55;;;14.50;96.40;;;;;;5017947;28;20187;-69
2022/11/12 11:38:11;;;;;;;7.93;7.13;;;14.40;97.10;;;;;;5002484;28;20253;-69
2022/11/12 11:40:46;;;;;;;7.57;6.88;;;14.00;97.90;;;;;;5004356;28;20282;-68
2022/11/12 11:43:20;;;;;;;8.05;7.18;;;13.70;98.80;;;;;;5010136;28;20213;-68
2022/11/12 11:46:08;;;;;;;7.57;6.90;;;13.50;99.20;;;;;;5006597;28;20311;-68
2022/11/12 11:49:05;;;;;;;7.40;6.72;;;13.40;99.90;;;;;;5011252;28;20229;-69
2022/11/12 11:51:51;;;;;;;8.75;7.90;;;13.30;99.90;;;;;;5008648;28;20194;-69
2022/11/12 11:54:45;;;;;;;8.38;7.57;;;13.00;99.90;;;;;;5012208;28;20182;-68
2022/11/12 11:57:15;;;;;;;7.72;7.03;;;13.50;99.90;;;;;;5007341;28;20277;-68
2022/11/12 12:00:03;;;;;;;9.20;7.43;;;13.40;99.90;;;;;;5012745;28;20190;-69
2022/11/12 12:02:35;;;;;;;8.32;7.57;;;13.70;99.90;;;;;;5012992;28;20201;-69
2022/11/12 12:05:38;;;;;;;9.98;7.28;;;13.50;99.90;;;;;;5009296;28;20219;-68
2022/11/12 12:08:08;;;;;;;7.88;7.10;;;13.80;99.90;;;;;;5024271;28;20186;-70
2022/11/12 12:10:55;;;;;;;7.78;7.07;;;14.00;99.90;;;;;;5012179;28;20273;-68
2022/11/12 12:13:55;;;;;;;8.68;7.80;;;13.70;99.90;;;;;;5001318;28;20560;-69
2022/11/12 12:16:25;;;;;;;8.60;7.70;;;13.50;99.80;;;;;;5007862;28;20188;-68
2022/11/12 12:19:09;;;;;;;8.90;8.00;;;13.70;99.90;;;;;;5012760;28;20183;-69
2022/11/12 12:21:38;;;;;;;9.07;7.70;;;13.50;99.90;;;;;;5010504;28;20187;-67
2022/11/12 12:24:30;;;;;;;8.27;7.53;;;13.60;99.90;;;;;;5012034;28;20229;-68
2022/11/12 12:27:34;;;;;;;7.78;7.07;;;13.40;99.90;;;;;;5011836;28;20356;-69
2022/11/12 12:30:13;;;;;;;8.20;6.85;;;13.80;99.90;;;;;;5010405;28;20179;-68
2022/11/12 12:32:46;;;;;;;8.63;7.00;;;13.90;99.90;;;;;;5006450;28;20237;-68
2022/11/12 12:35:33;;;;;;;7.80;7.10;;;14.10;99.80;;;;;;4998961;28;20230;-67
2022/11/12 12:38:17;;;;;;;7.70;6.90;;;14.00;99.70;;;;;;5014209;28;20273;-68
2022/11/12 12:40:50;;;;;;;7.80;7.13;;;14.00;99.70;;;;;;5002465;28;20179;-68
2022/11/12 12:43:19;;;;;;;8.30;7.60;;;14.10;99.50;;;;;;4998493;28;20568;-69
2022/11/12 12:45:46;;;;;;;9.15;8.27;;;14.10;99.40;;;;;;5001834;28;20343;-66
2022/11/12 12:48:20;;;;;;;7.68;6.97;;;13.90;99.50;;;;;;5014152;28;20206;-66
2022/11/12 12:50:47;;;;;;;7.60;6.90;;;13.90;99.60;;;;;;5010736;28;20186;-65
2022/11/12 12:53:28;;;;;;;7.53;6.70;;;14.00;99.50;;;;;;5009401;28;20230;-66
2022/11/12 12:56:01;;;;;;;6.90;6.30;;;13.90;99.40;;;;;;5011836;28;20197;-66
2022/11/12 12:58:47;;;;;;;6.50;5.90;;;14.20;99.10;;;;;;5010511;28;20190;-65
2022/11/12 13:01:19;;;;;;;8.18;7.47;;;14.00;98.90;;;;;;5009115;28;20193;-65
2022/11/12 13:03:54;;;;;;;7.47;6.78;;;14.10;99.30;;;;;;5013018;28;20210;-65
2022/11/12 13:06:30;;;;;;;7.90;6.78;;;14.20;99.00;;;;;;5008252;28;20581;-64
2022/11/12 13:09:11;;;;;;;7.18;6.57;;;14.00;99.40;;;;;;5011043;28;20190;-66
2022/11/12 13:14:36;;;;;;;7.38;6.68;;;14.40;98.60;;;;;;5007845;28;20635;-65
2022/11/12 13:17:07;;;;;;;9.52;7.30;;;14.40;98.70;;;;;;5007032;28;20187;-65
2022/11/12 13:19:36;;;;;;;10.52;6.38;;;14.40;98.30;;;;;;5009677;28;20284;-65
2022/11/12 13:22:16;;;;;;;8.05;6.60;;;14.20;98.70;;;;;;5005776;28;20211;-65
2022/11/12 13:25:07;;;;;;;6.38;5.78;;;14.30;98.50;;;;;;5014394;28;20193;-65
2022/11/12 13:27:39;;;;;;;7.30;6.60;;;14.30;98.70;;;;;;5015641;28;20559;-66
2022/11/12 13:30:27;;;;;;;7.55;6.85;;;14.40;98.50;;;;;;5006609;28;20179;-65
2022/11/12 13:32:55;;;;;;;7.93;6.95;;;14.00;98.20;;;;;;4999148;28;20269;-65